sensor_id;sensor_type;location;lat;lon;timestamp;pressure;altitude;pressure_sealevel;temperature;humidity
79617;BME280;69097;52.132;5.422;2023-08-07T00:00:24;101413.97;;;13.22;95.81
79617;BME280;69097;52.132;5.422;2023-08-07T00:02:51;101418.81;;;13.21;95.94
79617;BME280;69097;52.132;5.422;2023-08-07T00:05:17;101413.97;;;13.22;96.00
79617;BME280;69097;52.132;5.422;2023-08-07T00:07:44;101412.75;;;13.23;96.02
79617;BME280;69097;52.132;5.422;2023-08-07T00:10:12;101417.94;;;13.24;95.88
79617;BME280;69097;52.132;5.422;2023-08-07T00:12:39;101417.56;;;13.22;96.17
79617;BME280;69097;52.132;5.422;2023-08-07T00:15:06;101428.03;;;13.22;96.04
79617;BME280;69097;52.132;5.422;2023-08-07T00:17:35;101419.59;;;13.22;96.06
79617;BME280;69097;52.132;5.422;2023-08-07T00:20:02;101419.59;;;13.22;96.21
79617;BME280;69097;52.132;5.422;2023-08-07T00:22:29;101428.03;;;13.22;96.03
79617;BME280;69097;52.132;5.422;2023-08-07T00:24:56;101428.47;;;13.20;95.85
79617;BME280;69097;52.132;5.422;2023-08-07T00:27:22;101426.09;;;13.19;95.80
79617;BME280;69097;52.132;5.422;2023-08-07T00:29:49;101421.72;;;13.18;95.44
79617;BME280;69097;52.132;5.422;2023-08-07T00:32:15;101431.75;;;13.19;95.84
79617;BME280;69097;52.132;5.422;2023-08-07T00:34:44;101427.69;;;13.20;96.16
79617;BME280;69097;52.132;5.422;2023-08-07T00:37:11;101433.75;;;13.18;95.90
79617;BME280;69097;52.132;5.422;2023-08-07T00:39:37;101426.19;;;13.15;96.02
79617;BME280;69097;52.132;5.422;2023-08-07T00:42:04;101429.44;;;13.14;95.84
79617;BME280;69097;52.132;5.422;2023-08-07T00:44:31;101418.97;;;13.14;95.76
79617;BME280;69097;52.132;5.422;2023-08-07T00:46:58;101429.00;;;13.15;95.50
79617;BME280;69097;52.132;5.422;2023-08-07T00:49:25;101424.53;;;13.18;95.69
79617;BME280;69097;52.132;5.422;2023-08-07T00:51:52;101424.97;;;13.16;95.59
79617;BME280;69097;52.132;5.422;2023-08-07T00:54:20;101425.75;;;13.17;95.39
79617;BME280;69097;52.132;5.422;2023-08-07T00:56:46;101414.91;;;13.15;95.56
79617;BME280;69097;52.132;5.422;2023-08-07T00:59:14;101413.78;;;13.13;95.33
79617;BME280;69097;52.132;5.422;2023-08-07T01:01:41;101416.59;;;13.13;95.53
79617;BME280;69097;52.132;5.422;2023-08-07T01:04:08;101414.13;;;13.15;95.65
79617;BME280;69097;52.132;5.422;2023-08-07T01:06:35;101422.22;;;13.13;95.24
79617;BME280;69097;52.132;5.422;2023-08-07T01:09:03;101427.88;;;13.13;95.35
79617;BME280;69097;52.132;5.422;2023-08-07T01:11:36;101427.88;;;13.13;95.75
79617;BME280;69097;52.132;5.422;2023-08-07T01:19:34;101427.34;;;13.18;95.87
79617;BME280;69097;52.132;5.422;2023-08-07T01:22:14;101430.16;;;13.18;95.67
79617;BME280;69097;52.132;5.422;2023-08-07T01:24:46;101429.38;;;13.17;95.59
79617;BME280;69097;52.132;5.422;2023-08-07T01:29:55;101439.38;;;13.18;95.72
79617;BME280;69097;52.132;5.422;2023-08-07T01:32:28;101432.97;;;13.18;95.78
79617;BME280;69097;52.132;5.422;2023-08-07T01:34:56;101429.38;;;13.17;95.71
79617;BME280;69097;52.132;5.422;2023-08-07T01:37:25;101434.19;;;13.17;95.53
79617;BME280;69097;52.132;5.422;2023-08-07T01:39:55;101430.16;;;13.18;95.63
79617;BME280;69097;52.132;5.422;2023-08-07T01:42:24;101435.44;;;13.16;95.59
79617;BME280;69097;52.132;5.422;2023-08-07T01:44:52;101440.28;;;13.15;95.79
79617;BME280;69097;52.132;5.422;2023-08-07T01:47:19;101444.69;;;13.16;95.65
79617;BME280;69097;52.132;5.422;2023-08-07T01:49:46;101441.44;;;13.18;95.66
79617;BME280;69097;52.132;5.422;2023-08-07T01:52:12;101439.81;;;13.17;95.86
79617;BME280;69097;52.132;5.422;2023-08-07T01:54:40;101441.44;;;13.18;95.77
79617;BME280;69097;52.132;5.422;2023-08-07T01:57:06;101440.63;;;13.17;94.89
79617;BME280;69097;52.132;5.422;2023-08-07T01:59:35;101433.41;;;13.16;95.42
79617;BME280;69097;52.132;5.422;2023-08-07T02:02:01;101442.28;;;13.15;95.18
79617;BME280;69097;52.132;5.422;2023-08-07T02:04:28;101439.81;;;13.17;95.09
79617;BME280;69097;52.132;5.422;2023-08-07T02:06:54;101443.00;;;13.19;95.29
79617;BME280;69097;52.132;5.422;2023-08-07T02:09:22;101451.09;;;13.17;95.21
79617;BME280;69097;52.132;5.422;2023-08-07T02:11:48;101448.72;;;13.15;95.03
79617;BME280;69097;52.132;5.422;2023-08-07T02:14:14;101449.53;;;13.16;95.20
79617;BME280;69097;52.132;5.422;2023-08-07T02:16:41;101446.25;;;13.17;95.39
79617;BME280;69097;52.132;5.422;2023-08-07T02:19:07;101449.88;;;13.18;95.31
79617;BME280;69097;52.132;5.422;2023-08-07T02:21:35;101460.28;;;13.21;95.47
79617;BME280;69097;52.132;5.422;2023-08-07T02:24:02;101466.72;;;13.21;95.66
79617;BME280;69097;52.132;5.422;2023-08-07T02:26:35;101461.50;;;13.20;95.50
79617;BME280;69097;52.132;5.422;2023-08-07T02:29:01;101462.72;;;13.19;95.64
79617;BME280;69097;52.132;5.422;2023-08-07T02:31:33;101451.47;;;13.19;95.76
79617;BME280;69097;52.132;5.422;2023-08-07T02:34:00;101458.34;;;13.18;95.56
79617;BME280;69097;52.132;5.422;2023-08-07T02:36:28;101454.28;;;13.19;95.88
79617;BME280;69097;52.132;5.422;2023-08-07T02:38:54;101451.03;;;13.20;95.82
79617;BME280;69097;52.132;5.422;2023-08-07T02:41:21;101457.47;;;13.21;95.67
79617;BME280;69097;52.132;5.422;2023-08-07T02:43:47;101459.84;;;13.22;95.79
79617;BME280;69097;52.132;5.422;2023-08-07T02:46:14;101460.28;;;13.21;95.93
79617;BME280;69097;52.132;5.422;2023-08-07T02:48:40;101464.66;;;13.22;95.93
79617;BME280;69097;52.132;5.422;2023-08-07T02:51:07;101465.47;;;13.22;96.00
79617;BME280;69097;52.132;5.422;2023-08-07T02:53:33;101459.41;;;13.24;96.38
79617;BME280;69097;52.132;5.422;2023-08-07T02:56:01;101465.03;;;13.24;96.05
79617;BME280;69097;52.132;5.422;2023-08-07T02:58:27;101455.00;;;13.23;95.98
79617;BME280;69097;52.132;5.422;2023-08-07T03:00:54;101455.00;;;13.23;96.15
79617;BME280;69097;52.132;5.422;2023-08-07T03:03:21;101460.28;;;13.21;95.84
79617;BME280;69097;52.132;5.422;2023-08-07T03:05:52;101458.34;;;13.18;96.17
79617;BME280;69097;52.132;5.422;2023-08-07T03:08:18;101469.25;;;13.16;96.01
79617;BME280;69097;52.132;5.422;2023-08-07T03:10:52;101453.56;;;13.15;96.05
79617;BME280;69097;52.132;5.422;2023-08-07T03:13:19;101450.41;;;13.13;96.25
79617;BME280;69097;52.132;5.422;2023-08-07T03:15:46;101444.75;;;13.13;96.26
79617;BME280;69097;52.132;5.422;2023-08-07T03:18:19;101452.78;;;13.14;96.14
79617;BME280;69097;52.132;5.422;2023-08-07T03:20:45;101446.78;;;13.12;96.00
79617;BME280;69097;52.132;5.422;2023-08-07T03:23:12;101442.81;;;13.10;95.94
79617;BME280;69097;52.132;5.422;2023-08-07T03:25:38;101449.66;;;13.09;96.25
79617;BME280;69097;52.132;5.422;2023-08-07T03:28:05;101442.03;;;13.09;96.12
79617;BME280;69097;52.132;5.422;2023-08-07T03:30:31;101447.66;;;13.09;96.26
79617;BME280;69097;52.132;5.422;2023-08-07T03:32:57;101438.84;;;13.07;96.51
79617;BME280;69097;52.132;5.422;2023-08-07T03:35:24;101444.03;;;13.09;96.31
79617;BME280;69097;52.132;5.422;2023-08-07T03:37:51;101441.66;;;13.07;96.36
79617;BME280;69097;52.132;5.422;2023-08-07T03:40:17;101445.28;;;13.08;96.38
79617;BME280;69097;52.132;5.422;2023-08-07T03:42:43;101438.03;;;13.07;96.13
79617;BME280;69097;52.132;5.422;2023-08-07T03:45:10;101450.56;;;13.06;96.24
79617;BME280;69097;52.132;5.422;2023-08-07T03:47:36;101446.94;;;13.05;96.36
79617;BME280;69097;52.132;5.422;2023-08-07T03:50:03;101442.09;;;13.06;96.25
79617;BME280;69097;52.132;5.422;2023-08-07T03:52:30;101442.47;;;13.08;95.97
79617;BME280;69097;52.132;5.422;2023-08-07T03:54:56;101439.66;;;13.08;96.29
79617;BME280;69097;52.132;5.422;2023-08-07T03:57:23;101450.13;;;13.07;96.60
79617;BME280;69097;52.132;5.422;2023-08-07T03:59:52;101450.13;;;13.07;96.55
79617;BME280;69097;52.132;5.422;2023-08-07T04:02:18;101448.88;;;13.08;96.55
79617;BME280;69097;52.132;5.422;2023-08-07T04:04:45;101453.66;;;13.11;96.37
79617;BME280;69097;52.132;5.422;2023-08-07T04:07:11;101443.97;;;13.12;96.50
79617;BME280;69097;52.132;5.422;2023-08-07T04:09:37;101454.78;;;13.14;96.68
79617;BME280;69097;52.132;5.422;2023-08-07T04:12:04;101445.22;;;13.11;96.70
79617;BME280;69097;52.132;5.422;2023-08-07T04:14:31;101444.75;;;13.13;96.47
79617;BME280;69097;52.132;5.422;2023-08-07T04:16:57;101444.75;;;13.13;96.52
79617;BME280;69097;52.132;5.422;2023-08-07T04:19:32;101449.59;;;13.12;96.58
79617;BME280;69097;52.132;5.422;2023-08-07T04:21:59;101459.19;;;13.15;96.49
79617;BME280;69097;52.132;5.422;2023-08-07T04:24:25;101459.56;;;13.17;96.51
79617;BME280;69097;52.132;5.422;2023-08-07T04:26:52;101466.78;;;13.18;96.57
79617;BME280;69097;52.132;5.422;2023-08-07T04:29:20;101463.16;;;13.17;96.76
79617;BME280;69097;52.132;5.422;2023-08-07T04:31:46;101460.72;;;13.19;96.70
79617;BME280;69097;52.132;5.422;2023-08-07T04:34:13;101471.53;;;13.21;96.93
79617;BME280;69097;52.132;5.422;2023-08-07T04:36:40;101465.47;;;13.22;96.74
79617;BME280;69097;52.132;5.422;2023-08-07T04:39:14;101471.09;;;13.22;96.60
79617;BME280;69097;52.132;5.422;2023-08-07T04:41:43;101482.81;;;13.21;96.85
79617;BME280;69097;52.132;5.422;2023-08-07T04:44:10;101483.63;;;13.21;96.63
79617;BME280;69097;52.132;5.422;2023-08-07T04:46:36;101485.63;;;13.21;97.14
79617;BME280;69097;52.132;5.422;2023-08-07T04:49:03;101487.66;;;13.20;96.87
79617;BME280;69097;52.132;5.422;2023-08-07T04:51:30;101492.06;;;13.21;96.81
79617;BME280;69097;52.132;5.422;2023-08-07T04:53:57;101487.22;;;13.22;96.84
79617;BME280;69097;52.132;5.422;2023-08-07T04:56:24;101499.66;;;13.24;96.70
79617;BME280;69097;52.132;5.422;2023-08-07T04:58:51;101494.78;;;13.25;96.95
79617;BME280;69097;52.132;5.422;2023-08-07T05:01:17;101491.63;;;13.23;96.98
79617;BME280;69097;52.132;5.422;2023-08-07T05:03:47;101493.56;;;13.26;97.18
79617;BME280;69097;52.132;5.422;2023-08-07T05:06:13;101493.94;;;13.28;97.07
79617;BME280;69097;52.132;5.422;2023-08-07T05:08:45;101497.09;;;13.30;97.23
79617;BME280;69097;52.132;5.422;2023-08-07T05:11:11;101509.97;;;13.31;97.10
79617;BME280;69097;52.132;5.422;2023-08-07T05:13:38;101516.03;;;13.29;97.12
79617;BME280;69097;52.132;5.422;2023-08-07T05:16:04;101528.06;;;13.30;97.00
79617;BME280;69097;52.132;5.422;2023-08-07T05:18:31;101528.06;;;13.30;96.85
79617;BME280;69097;52.132;5.422;2023-08-07T05:20:57;101521.22;;;13.31;97.06
79617;BME280;69097;52.132;5.422;2023-08-07T05:23:24;101530.91;;;13.30;96.90
79617;BME280;69097;52.132;5.422;2023-08-07T05:25:50;101532.94;;;13.29;96.89
79617;BME280;69097;52.132;5.422;2023-08-07T05:28:17;101528.50;;;13.28;97.16
79617;BME280;69097;52.132;5.422;2023-08-07T05:30:43;101535.75;;;13.29;97.27
79617;BME280;69097;52.132;5.422;2023-08-07T05:33:09;101538.56;;;13.29;96.89
79617;BME280;69097;52.132;5.422;2023-08-07T05:35:38;101535.75;;;13.29;97.23
79617;BME280;69097;52.132;5.422;2023-08-07T05:38:04;101540.16;;;13.30;97.03
79617;BME280;69097;52.132;5.422;2023-08-07T05:40:31;101534.44;;;13.34;97.18
79617;BME280;69097;52.132;5.422;2023-08-07T05:42:57;101541.31;;;13.33;97.03
79617;BME280;69097;52.132;5.422;2023-08-07T05:45:24;101552.59;;;13.33;97.20
79617;BME280;69097;52.132;5.422;2023-08-07T05:47:50;101554.53;;;13.36;97.10
79617;BME280;69097;52.132;5.422;2023-08-07T05:50:17;101556.09;;;13.37;97.01
79617;BME280;69097;52.132;5.422;2023-08-07T05:52:43;101550.03;;;13.38;97.16
79617;BME280;69097;52.132;5.422;2023-08-07T05:55:10;101549.63;;;13.40;96.79
79617;BME280;69097;52.132;5.422;2023-08-07T05:57:37;101559.66;;;13.41;97.06
79617;BME280;69097;52.132;5.422;2023-08-07T06:00:03;101556.03;;;13.40;96.76
79617;BME280;69097;52.132;5.422;2023-08-07T06:02:44;101559.59;;;13.44;97.02
79617;BME280;69097;52.132;5.422;2023-08-07T06:05:10;101563.22;;;13.45;96.73
79617;BME280;69097;52.132;5.422;2023-08-07T06:07:40;101559.16;;;13.46;96.68
79617;BME280;69097;52.132;5.422;2023-08-07T06:10:07;101557.47;;;13.48;96.70
79617;BME280;69097;52.132;5.422;2023-08-07T06:12:34;101559.88;;;13.50;96.60
79617;BME280;69097;52.132;5.422;2023-08-07T06:15:00;101567.81;;;13.55;96.88
79617;BME280;69097;52.132;5.422;2023-08-07T06:17:27;101568.59;;;13.55;96.51
79617;BME280;69097;52.132;5.422;2023-08-07T06:19:53;101567.31;;;13.60;96.60
79617;BME280;69097;52.132;5.422;2023-08-07T06:22:20;101573.63;;;13.64;96.96
79617;BME280;69097;52.132;5.422;2023-08-07T06:24:46;101572.75;;;13.67;97.04
79617;BME280;69097;52.132;5.422;2023-08-07T06:27:13;101567.84;;;13.71;96.93
79617;BME280;69097;52.132;5.422;2023-08-07T06:29:40;101575.41;;;13.74;96.66
79617;BME280;69097;52.132;5.422;2023-08-07T06:32:06;101574.06;;;13.82;97.15
79617;BME280;69097;52.132;5.422;2023-08-07T06:34:35;101584.38;;;13.89;96.88
79617;BME280;69097;52.132;5.422;2023-08-07T06:37:03;101586.31;;;13.92;96.54
79617;BME280;69097;52.132;5.422;2023-08-07T06:39:30;101586.22;;;13.95;96.41
79617;BME280;69097;52.132;5.422;2023-08-07T06:41:57;101591.00;;;13.98;96.43
79617;BME280;69097;52.132;5.422;2023-08-07T06:44:24;101590.09;;;14.01;96.29
79617;BME280;69097;52.132;5.422;2023-08-07T06:46:50;101590.81;;;14.05;96.31
79617;BME280;69097;52.132;5.422;2023-08-07T06:49:17;101597.16;;;14.09;95.94
79617;BME280;69097;52.132;5.422;2023-08-07T06:51:46;101593.03;;;14.14;96.16
79617;BME280;69097;52.132;5.422;2023-08-07T06:54:13;101589.78;;;14.15;96.46
79617;BME280;69097;52.132;5.422;2023-08-07T06:56:40;101598.69;;;14.14;95.65
79617;BME280;69097;52.132;5.422;2023-08-07T06:59:08;101604.25;;;14.17;96.05
79617;BME280;69097;52.132;5.422;2023-08-07T07:01:35;101604.72;;;14.32;95.87
79617;BME280;69097;52.132;5.422;2023-08-07T07:04:02;101601.09;;;14.47;95.66
79617;BME280;69097;52.132;5.422;2023-08-07T07:06:30;101603.31;;;14.56;95.63
79617;BME280;69097;52.132;5.422;2023-08-07T07:08:59;101608.44;;;14.61;95.41
79617;BME280;69097;52.132;5.422;2023-08-07T07:11:26;101605.16;;;14.62;95.61
79617;BME280;69097;52.132;5.422;2023-08-07T07:13:52;101618.19;;;14.56;94.11
79617;BME280;69097;52.132;5.422;2023-08-07T07:16:19;101628.44;;;14.50;92.58
79617;BME280;69097;52.132;5.422;2023-08-07T07:18:49;101625.13;;;14.39;92.76
79617;BME280;69097;52.132;5.422;2023-08-07T07:21:17;101626.50;;;14.31;92.42
79617;BME280;69097;52.132;5.422;2023-08-07T07:23:43;101638.72;;;14.25;92.74
79617;BME280;69097;52.132;5.422;2023-08-07T07:26:10;101642.88;;;14.20;93.15
79617;BME280;69097;52.132;5.422;2023-08-07T07:28:36;101648.06;;;14.22;93.21
79617;BME280;69097;52.132;5.422;2023-08-07T07:31:02;101647.69;;;14.39;93.64
79617;BME280;69097;52.132;5.422;2023-08-07T07:33:30;101647.16;;;14.44;93.85
79617;BME280;69097;52.132;5.422;2023-08-07T07:35:57;101657.72;;;14.56;94.19
79617;BME280;69097;52.132;5.422;2023-08-07T07:38:23;101651.22;;;14.75;93.96
79617;BME280;69097;52.132;5.422;2023-08-07T07:40:50;101643.25;;;14.87;93.24
79617;BME280;69097;52.132;5.422;2023-08-07T07:43:16;101657.00;;;15.01;92.76
79617;BME280;69097;52.132;5.422;2023-08-07T07:45:43;101659.63;;;15.24;91.66
79617;BME280;69097;52.132;5.422;2023-08-07T07:48:10;101663.44;;;15.46;92.66
79617;BME280;69097;52.132;5.422;2023-08-07T07:50:37;101661.31;;;15.50;91.88
79617;BME280;69097;52.132;5.422;2023-08-07T07:53:04;101663.25;;;15.53;92.29
79617;BME280;69097;52.132;5.422;2023-08-07T07:55:30;101662.78;;;15.42;90.69
79617;BME280;69097;52.132;5.422;2023-08-07T07:57:57;101673.22;;;15.29;91.86
79617;BME280;69097;52.132;5.422;2023-08-07T08:00:23;101674.13;;;15.10;89.92
79617;BME280;69097;52.132;5.422;2023-08-07T08:02:53;101680.69;;;14.91;91.54
79617;BME280;69097;52.132;5.422;2023-08-07T08:05:20;101677.34;;;14.79;91.23
79617;BME280;69097;52.132;5.422;2023-08-07T08:07:47;101689.16;;;14.74;92.08
79617;BME280;69097;52.132;5.422;2023-08-07T08:10:13;101689.53;;;14.76;92.50
79617;BME280;69097;52.132;5.422;2023-08-07T08:12:40;101690.75;;;14.75;91.83
79617;BME280;69097;52.132;5.422;2023-08-07T08:15:10;101700.56;;;14.71;91.37
79617;BME280;69097;52.132;5.422;2023-08-07T08:17:37;101703.09;;;14.65;92.24
79617;BME280;69097;52.132;5.422;2023-08-07T08:20:06;101698.69;;;14.64;92.52
79617;BME280;69097;52.132;5.422;2023-08-07T08:22:34;101703.81;;;14.69;92.39
79617;BME280;69097;52.132;5.422;2023-08-07T08:25:03;101701.31;;;14.71;91.98
79617;BME280;69097;52.132;5.422;2023-08-07T08:27:31;101704.69;;;14.66;90.97
79617;BME280;69097;52.132;5.422;2023-08-07T08:29:58;101713.50;;;14.68;90.69
79617;BME280;69097;52.132;5.422;2023-08-07T08:32:25;101712.56;;;14.91;92.00
79617;BME280;69097;52.132;5.422;2023-08-07T08:34:51;101715.63;;;15.13;91.86
79617;BME280;69097;52.132;5.422;2023-08-07T08:37:17;101711.81;;;15.35;91.30
79617;BME280;69097;52.132;5.422;2023-08-07T08:39:44;101707.28;;;15.54;90.67
79617;BME280;69097;52.132;5.422;2023-08-07T08:42:11;101713.56;;;15.74;89.51
79617;BME280;69097;52.132;5.422;2023-08-07T08:44:51;101713.59;;;15.86;87.96
79617;BME280;69097;52.132;5.422;2023-08-07T08:47:23;101707.06;;;16.02;86.71
79617;BME280;69097;52.132;5.422;2023-08-07T08:49:55;101714.34;;;16.16;86.94
79617;BME280;69097;52.132;5.422;2023-08-07T08:52:26;101724.41;;;16.04;84.48
79617;BME280;69097;52.132;5.422;2023-08-07T08:54:53;101729.00;;;15.85;84.99
79617;BME280;69097;52.132;5.422;2023-08-07T08:57:21;101725.09;;;15.67;86.22
79617;BME280;69097;52.132;5.422;2023-08-07T08:59:48;101734.94;;;15.46;84.61
79617;BME280;69097;52.132;5.422;2023-08-07T09:02:16;101747.50;;;15.29;85.57
79617;BME280;69097;52.132;5.422;2023-08-07T09:04:46;101747.75;;;15.19;84.35
79617;BME280;69097;52.132;5.422;2023-08-07T09:07:14;101757.66;;;15.11;85.88
79617;BME280;69097;52.132;5.422;2023-08-07T09:09:43;101735.50;;;15.09;83.67
79617;BME280;69097;52.132;5.422;2023-08-07T09:12:22;101753.63;;;15.12;87.15
79617;BME280;69097;52.132;5.422;2023-08-07T09:14:56;101744.50;;;15.20;86.40
79617;BME280;69097;52.132;5.422;2023-08-07T09:17:33;101749.19;;;15.27;85.32
79617;BME280;69097;52.132;5.422;2023-08-07T09:20:01;101751.84;;;15.34;84.60
79617;BME280;69097;52.132;5.422;2023-08-07T09:22:30;101756.66;;;15.49;86.84
79617;BME280;69097;52.132;5.422;2023-08-07T09:24:57;101755.00;;;15.80;86.88
79617;BME280;69097;52.132;5.422;2023-08-07T09:27:26;101758.03;;;16.02;85.89
79617;BME280;69097;52.132;5.422;2023-08-07T09:29:54;101759.03;;;16.08;85.23
79617;BME280;69097;52.132;5.422;2023-08-07T09:32:22;101755.91;;;16.19;85.27
79617;BME280;69097;52.132;5.422;2023-08-07T09:34:51;101759.31;;;16.26;84.09
79617;BME280;69097;52.132;5.422;2023-08-07T09:37:18;101763.06;;;16.36;82.84
79617;BME280;69097;52.132;5.422;2023-08-07T09:39:46;101771.13;;;16.37;83.06
79617;BME280;69097;52.132;5.422;2023-08-07T09:42:14;101760.34;;;16.32;82.47
79617;BME280;69097;52.132;5.422;2023-08-07T09:44:44;101762.06;;;16.30;83.36
79617;BME280;69097;52.132;5.422;2023-08-07T09:47:17;101766.56;;;16.27;82.97
79617;BME280;69097;52.132;5.422;2023-08-07T09:49:46;101762.03;;;16.17;79.90
79617;BME280;69097;52.132;5.422;2023-08-07T09:52:16;101768.78;;;16.07;81.84
79617;BME280;69097;52.132;5.422;2023-08-07T09:54:43;101774.09;;;16.05;82.96
79617;BME280;69097;52.132;5.422;2023-08-07T09:57:09;101773.31;;;16.05;82.90
79617;BME280;69097;52.132;5.422;2023-08-07T09:59:38;101784.66;;;16.17;82.80
79617;BME280;69097;52.132;5.422;2023-08-07T10:02:04;101788.00;;;16.28;82.63
79617;BME280;69097;52.132;5.422;2023-08-07T10:04:32;101790.38;;;16.30;82.00
79617;BME280;69097;52.132;5.422;2023-08-07T10:06:59;101791.81;;;16.22;81.91
79617;BME280;69097;52.132;5.422;2023-08-07T10:09:28;101807.06;;;16.12;83.03
79617;BME280;69097;52.132;5.422;2023-08-07T10:11:55;101803.66;;;16.04;82.34
79617;BME280;69097;52.132;5.422;2023-08-07T10:14:22;101807.03;;;15.99;81.28
79617;BME280;69097;52.132;5.422;2023-08-07T10:16:49;101801.38;;;15.99;83.07
79617;BME280;69097;52.132;5.422;2023-08-07T10:19:15;101806.22;;;15.98;83.02
79617;BME280;69097;52.132;5.422;2023-08-07T10:21:42;101805.22;;;16.05;83.10
79617;BME280;69097;52.132;5.422;2023-08-07T10:24:10;101802.81;;;16.20;83.66
79617;BME280;69097;52.132;5.422;2023-08-07T10:26:41;101808.69;;;16.25;81.12
79617;BME280;69097;52.132;5.422;2023-08-07T10:29:12;101797.97;;;16.33;82.16
79617;BME280;69097;52.132;5.422;2023-08-07T10:31:42;101786.63;;;16.45;82.76
79617;BME280;69097;52.132;5.422;2023-08-07T10:34:11;101795.66;;;16.81;80.44
79617;BME280;69097;52.132;5.422;2023-08-07T10:36:39;101794.31;;;16.98;81.08
79617;BME280;69097;52.132;5.422;2023-08-07T10:39:12;101792.69;;;17.48;80.32
79617;BME280;69097;52.132;5.422;2023-08-07T10:41:41;101796.75;;;17.81;80.20
79617;BME280;69097;52.132;5.422;2023-08-07T10:44:44;101801.00;;;17.64;77.78
79617;BME280;69097;52.132;5.422;2023-08-07T10:47:14;101797.19;;;17.45;76.36
79617;BME280;69097;52.132;5.422;2023-08-07T10:49:41;101806.44;;;17.24;77.47
79617;BME280;69097;52.132;5.422;2023-08-07T10:54:49;101812.16;;;17.33;79.40
79617;BME280;69097;52.132;5.422;2023-08-07T10:57:17;101805.53;;;17.74;76.58
79617;BME280;69097;52.132;5.422;2023-08-07T11:00:02;101806.88;;;18.03;78.40
79617;BME280;69097;52.132;5.422;2023-08-07T11:02:32;101814.28;;;18.01;74.50
79617;BME280;69097;52.132;5.422;2023-08-07T11:05:00;101809.25;;;17.83;73.19
79617;BME280;69097;52.132;5.422;2023-08-07T11:07:28;101813.66;;;17.84;75.64
79617;BME280;69097;52.132;5.422;2023-08-07T11:09:57;101815.53;;;17.66;73.81
79617;BME280;69097;52.132;5.422;2023-08-07T11:12:27;101830.00;;;17.34;73.88
79617;BME280;69097;52.132;5.422;2023-08-07T11:15:02;101831.16;;;17.23;75.76
79617;BME280;69097;52.132;5.422;2023-08-07T11:17:32;101839.66;;;17.23;75.39
79617;BME280;69097;52.132;5.422;2023-08-07T11:19:59;101831.28;;;17.07;72.52
79617;BME280;69097;52.132;5.422;2023-08-07T11:22:25;101844.53;;;17.10;75.55
79617;BME280;69097;52.132;5.422;2023-08-07T11:24:52;101831.94;;;17.11;76.25
79617;BME280;69097;52.132;5.422;2023-08-07T11:27:21;101842.38;;;17.14;75.23
79617;BME280;69097;52.132;5.422;2023-08-07T11:29:48;101828.31;;;17.23;74.17
79617;BME280;69097;52.132;5.422;2023-08-07T11:32:16;101825.56;;;17.58;76.64
79617;BME280;69097;52.132;5.422;2023-08-07T11:34:48;101827.59;;;17.91;74.64
79617;BME280;69097;52.132;5.422;2023-08-07T11:37:17;101825.72;;;18.10;73.60
79617;BME280;69097;52.132;5.422;2023-08-07T11:39:44;101838.34;;;18.30;75.09
79617;BME280;69097;52.132;5.422;2023-08-07T11:42:11;101825.78;;;18.62;73.30
79617;BME280;69097;52.132;5.422;2023-08-07T11:44:37;101834.47;;;18.89;73.35
79617;BME280;69097;52.132;5.422;2023-08-07T11:47:04;101828.56;;;19.14;72.39
79617;BME280;69097;52.132;5.422;2023-08-07T11:49:31;101827.00;;;19.22;69.14
79617;BME280;69097;52.132;5.422;2023-08-07T11:51:58;101829.31;;;19.15;66.68
79617;BME280;69097;52.132;5.422;2023-08-07T11:54:26;101821.63;;;19.24;69.86
79617;BME280;69097;52.132;5.422;2023-08-07T11:56:52;101829.00;;;19.43;68.81
79617;BME280;69097;52.132;5.422;2023-08-07T11:59:19;101811.63;;;19.59;68.85
79617;BME280;69097;52.132;5.422;2023-08-07T12:01:46;101825.56;;;19.67;64.68
79617;BME280;69097;52.132;5.422;2023-08-07T12:04:12;101817.66;;;19.80;68.57
79617;BME280;69097;52.132;5.422;2023-08-07T12:06:53;101820.66;;;20.03;68.37
79617;BME280;69097;52.132;5.422;2023-08-07T12:09:22;101814.97;;;20.12;64.95
79617;BME280;69097;52.132;5.422;2023-08-07T12:11:48;101815.91;;;20.00;64.25
79617;BME280;69097;52.132;5.422;2023-08-07T12:14:15;101808.78;;;20.14;65.67
79617;BME280;69097;52.132;5.422;2023-08-07T12:16:44;101811.31;;;20.39;66.25
79617;BME280;69097;52.132;5.422;2023-08-07T12:19:12;101809.69;;;20.56;62.14
79617;BME280;69097;52.132;5.422;2023-08-07T12:21:39;101809.53;;;20.59;62.09
79617;BME280;69097;52.132;5.422;2023-08-07T12:24:07;101811.72;;;20.64;61.92
79617;BME280;69097;52.132;5.422;2023-08-07T12:26:34;101815.13;;;20.36;60.15
79617;BME280;69097;52.132;5.422;2023-08-07T12:29:00;101823.03;;;20.05;61.78
79617;BME280;69097;52.132;5.422;2023-08-07T12:31:27;101827.16;;;20.04;59.68
79617;BME280;69097;52.132;5.422;2023-08-07T12:33:54;101829.53;;;20.05;63.59
79617;BME280;69097;52.132;5.422;2023-08-07T12:36:21;101821.44;;;20.13;63.22
79617;BME280;69097;52.132;5.422;2023-08-07T12:38:48;101817.66;;;19.98;59.17
79617;BME280;69097;52.132;5.422;2023-08-07T12:41:14;101817.03;;;19.94;62.27
79617;BME280;69097;52.132;5.422;2023-08-07T12:43:44;101817.81;;;20.03;59.49
79617;BME280;69097;52.132;5.422;2023-08-07T12:46:10;101832.22;;;20.18;59.91
79617;BME280;69097;52.132;5.422;2023-08-07T12:48:40;101813.41;;;20.20;61.04
79617;BME280;69097;52.132;5.422;2023-08-07T12:51:06;101821.00;;;20.32;59.97
79617;BME280;69097;52.132;5.422;2023-08-07T12:53:33;101825.09;;;20.31;56.16
79617;BME280;69097;52.132;5.422;2023-08-07T12:55:59;101815.44;;;20.29;57.99
79617;BME280;69097;52.132;5.422;2023-08-07T12:58:26;101814.00;;;20.42;55.43
79617;BME280;69097;52.132;5.422;2023-08-07T13:00:55;101821.59;;;20.36;55.89
79617;BME280;69097;52.132;5.422;2023-08-07T13:03:22;101824.16;;;20.34;58.80